Time;durP1;ratioP1;P1;durP2;ratioP2;P2;SDS_P1;SDS_P2;PMS_P1;PMS_P2;Temp;Humidity;BMP_temperature;BMP_pressure;BME280_temperature;BME280_humidity;BME280_pressure;Samples;Min_cycle;Max_cycle;Signal;HPM_P1;HPM_P2
2022/12/22 03:26:39;;;;;;;34.28;25.98;;;8.40;99.90;;;;;;4960108;28;89244;-32
2022/12/22 03:29:05;;;;;;;34.35;28.50;;;8.40;99.90;;;;;;4960894;28;87977;-32
2022/12/22 03:31:31;;;;;;;37.05;26.95;;;8.40;99.90;;;;;;4959296;28;89998;-34
2022/12/22 03:33:56;;;;;;;36.63;27.95;;;8.40;99.90;;;;;;4960531;28;89601;-35
2022/12/22 03:36:22;;;;;;;33.83;26.50;;;8.40;99.90;;;;;;4960943;28;87592;-33
2022/12/22 03:38:48;;;;;;;33.90;27.30;;;8.40;99.90;;;;;;4960485;28;90038;-32
2022/12/22 03:46:29;;;;;;;35.10;29.88;;;8.40;99.90;;;;;;4960512;28;90360;-32
2022/12/22 03:46:43;;;;;;;38.97;27.77;;;8.40;99.90;;;;;;4960034;28;89594;-34
2022/12/22 03:49:10;;;;;;;36.92;28.65;;;8.40;99.90;;;;;;4960916;28;89580;-32
2022/12/22 03:51:42;;;;;;;35.10;28.65;;;8.40;99.90;;;;;;4959914;28;90045;-33
2022/12/22 03:54:08;;;;;;;38.75;28.30;;;8.40;99.90;;;;;;4959948;28;90631;-32
2022/12/22 03:56:34;;;;;;;33.08;26.58;;;8.40;99.90;;;;;;4960070;28;88932;-32
2022/12/22 03:59:00;;;;;;;34.50;29.25;;;8.40;99.90;;;;;;4960162;28;88234;-35
2022/12/22 04:01:25;;;;;;;38.03;28.85;;;8.40;99.90;;;;;;4958895;28;90349;-35
2022/12/22 04:03:51;;;;;;;41.65;31.15;;;8.40;99.90;;;;;;4960180;28;89473;-32
2022/12/22 04:06:17;;;;;;;37.30;26.73;;;8.40;99.90;;;;;;4960514;28;89430;-33
2022/12/22 04:08:43;;;;;;;30.73;24.42;;;8.40;99.90;;;;;;4959475;28;89552;-34
2022/12/22 04:13:55;;;;;;;32.63;26.70;;;8.40;99.90;;;;;;4960473;28;90103;-33
2022/12/22 04:16:20;;;;;;;38.20;27.83;;;8.40;99.90;;;;;;4959744;28;87614;-33
2022/12/22 04:18:46;;;;;;;38.03;26.02;;;8.40;99.90;;;;;;4960456;28;87688;-33
2022/12/22 04:21:12;;;;;;;36.55;27.90;;;8.40;99.90;;;;;;4959499;28;90783;-33
2022/12/22 04:23:37;;;;;;;41.60;28.00;;;8.40;99.90;;;;;;4959640;28;89045;-33
2022/12/22 04:26:03;;;;;;;29.98;25.05;;;8.40;99.90;;;;;;4960185;28;87915;-34
2022/12/22 04:28:28;;;;;;;34.92;28.02;;;8.40;99.90;;;;;;4959820;28;89323;-33
2022/12/22 04:30:54;;;;;;;41.85;26.65;;;8.40;99.90;;;;;;4960163;28;90119;-32
2022/12/22 04:33:20;;;;;;;36.13;26.40;;;8.40;99.90;;;;;;4959445;28;89800;-32
2022/12/22 04:35:45;;;;;;;40.58;28.25;;;8.40;99.90;;;;;;4959890;28;88396;-35
2022/12/22 04:38:11;;;;;;;29.50;24.02;;;8.40;99.90;;;;;;4959146;28;88106;-35
2022/12/22 04:40:36;;;;;;;29.00;23.80;;;8.40;99.90;;;;;;4959918;28;89773;-32
2022/12/22 04:43:02;;;;;;;35.25;25.33;;;8.40;99.90;;;;;;4960030;28;90865;-33
2022/12/22 04:45:28;;;;;;;27.23;21.02;;;8.40;99.90;;;;;;4959652;28;89557;-33
2022/12/22 04:47:53;;;;;;;32.65;24.00;;;8.40;99.90;;;;;;4960025;28;88694;-33
2022/12/22 04:50:19;;;;;;;37.25;26.40;;;8.40;99.90;;;;;;4959193;28;90244;-32
2022/12/22 04:52:44;;;;;;;34.95;26.60;;;8.40;99.90;;;;;;4959518;28;89601;-34
2022/12/22 04:55:10;;;;;;;31.45;23.52;;;8.40;99.90;;;;;;4960000;28;87624;-33
2022/12/22 04:57:36;;;;;;;40.17;24.38;;;8.40;99.90;;;;;;4959490;28;88045;-33
2022/12/22 05:00:03;;;;;;;34.78;25.58;;;8.40;99.90;;;;;;4959434;28;91566;-33
2022/12/22 05:02:29;;;;;;;39.28;27.83;;;8.30;99.90;;;;;;4959580;28;91685;-31
2022/12/22 05:04:54;;;;;;;41.15;25.48;;;8.30;99.90;;;;;;4959808;28;88368;-33
2022/12/22 05:07:20;;;;;;;36.47;27.48;;;8.30;99.90;;;;;;4959714;28;90534;-33
2022/12/22 05:09:46;;;;;;;44.30;28.08;;;8.30;99.90;;;;;;4959345;28;89725;-35
2022/12/22 05:14:55;;;;;;;33.85;26.02;;;8.30;99.90;;;;;;4962983;28;88716;-33
2022/12/22 05:17:21;;;;;;;30.02;23.70;;;8.30;99.90;;;;;;4963212;28;89768;-31
2022/12/22 05:19:46;;;;;;;55.13;29.08;;;8.30;99.90;;;;;;4961934;28;90382;-33
2022/12/22 05:22:12;;;;;;;40.90;26.80;;;8.30;99.90;;;;;;4962842;28;89853;-32
2022/12/22 05:24:38;;;;;;;40.05;26.95;;;8.30;99.90;;;;;;4961728;28;88328;-34
2022/12/22 05:27:03;;;;;;;50.42;28.88;;;8.30;99.90;;;;;;4963047;28;90116;-33
2022/12/22 05:29:29;;;;;;;40.47;28.65;;;8.30;99.90;;;;;;4961784;28;90680;-33
2022/12/22 05:31:54;;;;;;;30.80;24.50;;;8.30;99.90;;;;;;4962806;28;90049;-32
2022/12/22 05:34:20;;;;;;;43.15;30.38;;;8.30;99.90;;;;;;4963131;28;88265;-32
2022/12/22 05:36:46;;;;;;;36.75;25.20;;;8.30;99.90;;;;;;4961812;28;89734;-33
2022/12/22 05:39:11;;;;;;;34.90;24.20;;;8.30;99.90;;;;;;4962961;28;89895;-32
2022/12/22 05:41:37;;;;;;;35.00;26.20;;;8.30;99.90;;;;;;4962084;28;89542;-33
2022/12/22 05:44:02;;;;;;;42.33;28.88;;;8.30;99.90;;;;;;4963154;28;87672;-32
2022/12/22 05:46:28;;;;;;;36.00;27.90;;;8.30;99.90;;;;;;4962606;28;89964;-32
2022/12/22 05:48:54;;;;;;;34.15;25.05;;;8.30;99.90;;;;;;4962248;28;90130;-33
2022/12/22 05:51:19;;;;;;;32.78;23.95;;;8.30;99.90;;;;;;4962361;28;89665;-33
2022/12/22 05:53:45;;;;;;;35.83;26.75;;;8.30;99.90;;;;;;4961612;28;87560;-33
2022/12/22 05:56:10;;;;;;;37.13;25.88;;;8.30;99.90;;;;;;4963074;28;90438;-32
2022/12/22 05:58:37;;;;;;;41.58;27.92;;;8.30;99.90;;;;;;4961699;28;89911;-32
2022/12/22 06:01:03;;;;;;;37.28;27.27;;;8.30;99.90;;;;;;4961438;28;89167;-32
2022/12/22 06:03:29;;;;;;;39.88;27.67;;;8.30;99.90;;;;;;4961913;28;89961;-33
2022/12/22 06:05:55;;;;;;;36.65;26.63;;;8.30;99.90;;;;;;4961708;28;87633;-34
2022/12/22 06:08:21;;;;;;;36.13;27.13;;;8.30;99.90;;;;;;4962246;28;90088;-33
2022/12/22 06:10:47;;;;;;;42.72;26.58;;;8.40;99.90;;;;;;4961835;28;89594;-33
2022/12/22 06:13:13;;;;;;;40.72;24.58;;;8.40;99.90;;;;;;4960178;28;90110;-34
2022/12/22 06:15:39;;;;;;;37.42;25.40;;;8.40;99.90;;;;;;4962035;28;87701;-35
2022/12/22 06:18:04;;;;;;;70.90;28.35;;;8.40;99.90;;;;;;4961919;28;88731;-35
2022/12/22 06:20:30;;;;;;;30.10;22.92;;;8.30;99.90;;;;;;4961843;28;89849;-34
2022/12/22 06:22:55;;;;;;;35.88;25.13;;;8.30;99.90;;;;;;4961173;28;89181;-34
2022/12/22 06:25:21;;;;;;;41.50;27.05;;;8.30;99.90;;;;;;4962252;28;88695;-33
2022/12/22 06:27:47;;;;;;;122.38;35.20;;;8.30;99.90;;;;;;4961334;28;90280;-33
2022/12/22 06:30:14;;;;;;;55.53;27.48;;;8.30;99.90;;;;;;4960661;28;90238;-33
2022/12/22 06:32:40;;;;;;;37.58;24.98;;;8.30;99.90;;;;;;4962050;28;87585;-33
2022/12/22 06:35:07;;;;;;;38.53;22.00;;;8.30;99.90;;;;;;4961218;28;88380;-33
2022/12/22 06:37:32;;;;;;;33.13;22.80;;;8.30;99.90;;;;;;4960763;28;90579;-32
2022/12/22 06:39:58;;;;;;;31.67;23.60;;;8.30;99.90;;;;;;4961638;28;89159;-32
2022/12/22 06:45:08;;;;;;;39.58;24.02;;;8.40;99.90;;;;;;4961562;28;89613;-33
2022/12/22 06:47:34;;;;;;;42.83;28.38;;;8.40;99.90;;;;;;4961059;28;90278;-32
2022/12/22 06:49:59;;;;;;;36.63;25.42;;;8.40;99.90;;;;;;4960839;28;90264;-35
2022/12/22 06:52:25;;;;;;;46.25;28.00;;;8.30;99.90;;;;;;4961585;28;88020;-31
2022/12/22 06:54:50;;;;;;;59.15;29.77;;;8.40;99.90;;;;;;4961545;28;90054;-32
2022/12/22 06:57:16;;;;;;;44.10;26.63;;;8.30;99.90;;;;;;4961752;28;90419;-33
2022/12/22 06:59:41;;;;;;;42.88;29.70;;;8.30;99.90;;;;;;4960675;28;89567;-34
2022/12/22 07:02:10;;;;;;;50.67;30.02;;;8.30;99.90;;;;;;4961209;28;87672;-33
2022/12/22 07:04:35;;;;;;;39.95;27.50;;;8.30;99.90;;;;;;4961584;28;87719;-33
2022/12/22 07:07:01;;;;;;;103.53;34.47;;;8.20;99.90;;;;;;4960566;28;90338;-33
2022/12/22 07:09:27;;;;;;;42.80;27.15;;;8.20;99.90;;;;;;4960679;28;89489;-36
2022/12/22 07:11:53;;;;;;;66.30;31.23;;;8.20;99.90;;;;;;4961696;28;90029;-32
2022/12/22 07:14:18;;;;;;;48.08;28.38;;;8.10;99.90;;;;;;4960666;28;88984;-33
2022/12/22 07:16:45;;;;;;;55.60;30.40;;;8.10;99.90;;;;;;4960967;28;90336;-33
2022/12/22 07:19:11;;;;;;;45.03;27.80;;;8.10;99.90;;;;;;4960438;28;89909;-33
2022/12/22 07:21:37;;;;;;;46.80;28.90;;;8.10;99.90;;;;;;4960693;28;87878;-32
2022/12/22 07:24:03;;;;;;;42.95;25.23;;;8.10;99.90;;;;;;4961548;28;88699;-33
2022/12/22 07:26:29;;;;;;;45.83;25.90;;;8.00;99.90;;;;;;4961243;28;90506;-32
2022/12/22 07:28:54;;;;;;;61.47;27.23;;;8.00;99.90;;;;;;4960496;28;89015;-33
2022/12/22 07:31:20;;;;;;;49.05;26.80;;;8.00;99.90;;;;;;4960750;28;90876;-33
2022/12/22 07:33:45;;;;;;;34.55;25.25;;;7.90;99.90;;;;;;4960808;28;90238;-37
2022/12/22 07:36:17;;;;;;;42.83;25.30;;;7.90;99.90;;;;;;4960098;28;90236;-33
2022/12/22 07:38:45;;;;;;;40.83;24.55;;;7.90;99.90;;;;;;4960560;28;90138;-34
2022/12/22 07:43:59;;;;;;;48.08;25.35;;;7.70;99.90;;;;;;4960515;28;89950;-33
2022/12/22 07:46:27;;;;;;;37.45;24.98;;;7.60;99.90;;;;;;4960317;28;89227;-33
2022/12/22 07:51:40;;;;;;;56.78;27.98;;;7.50;99.90;;;;;;4960450;28;90496;-33
2022/12/22 07:54:07;;;;;;;40.20;27.17;;;7.40;99.90;;;;;;4960718;28;89455;-34
2022/12/22 07:56:33;;;;;;;55.22;27.58;;;7.30;99.90;;;;;;4960237;28;90653;-33
2022/12/22 07:58:59;;;;;;;44.35;26.50;;;7.30;99.90;;;;;;4951289;28;90416;-31
2022/12/22 08:01:25;;;;;;;48.05;25.55;;;7.20;99.90;;;;;;4952289;28;89331;-34
2022/12/22 08:03:51;;;;;;;58.20;26.10;;;7.10;99.90;;;;;;4960771;28;87803;-32
2022/12/22 08:06:17;;;;;;;42.40;24.95;;;7.00;99.90;;;;;;4961798;28;89228;-32
2022/12/22 08:08:42;;;;;;;41.70;26.88;;;7.00;99.90;;;;;;4961147;28;90758;-32
2022/12/22 08:11:08;;;;;;;40.35;24.90;;;7.00;99.90;;;;;;4962254;28;88152;-33
2022/12/22 08:13:34;;;;;;;58.80;26.98;;;6.90;99.90;;;;;;4961129;28;88746;-34
2022/12/22 08:16:08;;;;;;;88.90;30.63;;;6.90;99.90;;;;;;4941743;28;90306;-35
2022/12/22 08:18:34;;;;;;;52.13;27.80;;;6.80;99.90;;;;;;4959718;28;91551;-34
2022/12/22 08:21:00;;;;;;;61.70;28.98;;;6.80;99.90;;;;;;4960335;28;89725;-36
2022/12/22 08:23:26;;;;;;;75.32;32.40;;;6.80;99.90;;;;;;4960606;28;88668;-36
2022/12/22 08:26:17;;;;;;;83.78;31.10;;;6.80;99.90;;;;;;4961114;28;90335;-34
2022/12/22 08:28:57;;;;;;;92.80;34.88;;;6.80;99.90;;;;;;4960048;28;91504;-32
2022/12/22 08:31:26;;;;;;;67.05;33.42;;;6.90;99.90;;;;;;4958829;28;87736;-33
2022/12/22 08:33:54;;;;;;;67.18;33.35;;;6.90;99.90;;;;;;4961092;28;87560;-32
2022/12/22 08:36:20;;;;;;;63.58;32.80;;;7.00;99.90;;;;;;4959207;28;90731;-33
2022/12/22 08:38:45;;;;;;;59.03;29.65;;;7.10;99.90;;;;;;4957574;28;88961;-34
2022/12/22 08:41:14;;;;;;;53.13;30.73;;;7.20;99.90;;;;;;4959099;28;88079;-32
2022/12/22 08:43:39;;;;;;;56.83;32.42;;;7.20;99.90;;;;;;4954856;28;87529;-33
2022/12/22 08:46:05;;;;;;;60.90;31.48;;;7.30;99.90;;;;;;4956934;28;90873;-32
2022/12/22 08:48:31;;;;;;;57.63;29.33;;;7.20;99.90;;;;;;4963137;28;89381;-32
2022/12/22 08:50:57;;;;;;;49.30;28.85;;;7.30;99.90;;;;;;4963189;28;89629;-32
2022/12/22 08:53:22;;;;;;;41.28;26.77;;;7.20;99.90;;;;;;4963724;28;88906;-33
2022/12/22 08:55:54;;;;;;;42.40;25.90;;;7.30;99.90;;;;;;4963515;28;91482;-35
2022/12/22 08:58:21;;;;;;;47.70;27.15;;;7.30;99.90;;;;;;4964099;28;89125;-34
2022/12/22 09:00:47;;;;;;;54.28;28.85;;;7.20;99.90;;;;;;4963119;28;88237;-31
2022/12/22 09:03:13;;;;;;;46.15;26.83;;;7.20;99.90;;;;;;4963865;28;88909;-34
2022/12/22 09:05:40;;;;;;;44.03;25.90;;;7.20;99.90;;;;;;4963130;28;91150;-32
2022/12/22 09:08:06;;;;;;;50.08;27.00;;;7.20;99.90;;;;;;4962661;28;89707;-34
2022/12/22 09:10:32;;;;;;;38.72;25.73;;;7.20;99.90;;;;;;4962589;28;88105;-31
2022/12/22 09:12:57;;;;;;;36.53;24.05;;;7.20;99.90;;;;;;4964589;28;89282;-31
2022/12/22 09:15:23;;;;;;;39.35;25.00;;;7.20;99.90;;;;;;4964314;28;90533;-37
2022/12/22 09:17:49;;;;;;;41.97;25.13;;;7.20;99.90;;;;;;4964435;28;89778;-32
2022/12/22 09:20:15;;;;;;;42.97;23.85;;;7.20;99.90;;;;;;4963046;28;89022;-31
2022/12/22 09:22:40;;;;;;;43.17;21.10;;;7.20;99.90;;;;;;4963167;28;88680;-33
2022/12/22 09:25:06;;;;;;;44.90;23.85;;;7.20;99.90;;;;;;4962415;28;90276;-33
2022/12/22 09:27:32;;;;;;;35.85;22.13;;;7.20;99.90;;;;;;4961924;28;89425;-31
2022/12/22 09:29:58;;;;;;;44.30;27.33;;;7.20;99.90;;;;;;5008085;22;87696;-31
2022/12/22 09:32:23;;;;;;;42.10;22.45;;;7.20;99.90;;;;;;5001986;28;89251;-34
2022/12/22 09:34:49;;;;;;;42.67;24.38;;;7.10;99.90;;;;;;5002197;28;90319;-33
2022/12/22 09:37:15;;;;;;;33.83;22.48;;;7.10;99.90;;;;;;5001749;28;89762;-33
2022/12/22 09:39:41;;;;;;;29.73;18.98;;;7.10;99.90;;;;;;5002408;28;88981;-31
2022/12/22 09:42:14;;;;;;;38.05;22.35;;;7.20;99.90;;;;;;5002977;28;88690;-31
2022/12/22 09:44:43;;;;;;;43.75;21.33;;;7.10;99.90;;;;;;5001985;28;89977;-32
2022/12/22 09:47:25;;;;;;;34.40;20.73;;;7.10;99.90;;;;;;5003335;28;88993;-31
2022/12/22 09:49:51;;;;;;;36.75;21.63;;;7.10;99.90;;;;;;5002104;28;87710;-31
2022/12/22 09:52:47;;;;;;;37.97;22.60;;;7.10;99.90;;;;;;5000868;28;88075;-33
2022/12/22 09:55:25;;;;;;;27.75;19.10;;;7.10;99.90;;;;;;4996547;28;90350;-31
2022/12/22 09:57:52;;;;;;;32.53;18.75;;;7.10;99.90;;;;;;5001398;28;89474;-33
2022/12/22 10:00:22;;;;;;;41.22;19.83;;;7.00;99.90;;;;;;5002171;28;88968;-33
2022/12/22 10:03:07;;;;;;;29.38;18.80;;;7.00;99.90;;;;;;5001744;28;87683;-33
2022/12/22 10:05:41;;;;;;;51.92;22.02;;;7.00;99.90;;;;;;5001945;28;89364;-32
2022/12/22 10:08:12;;;;;;;33.05;20.90;;;7.10;99.90;;;;;;5001282;28;89686;-35
2022/12/22 10:10:39;;;;;;;35.55;19.77;;;7.00;99.90;;;;;;5001836;28;88156;-33
2022/12/22 10:13:06;;;;;;;28.27;18.13;;;7.10;99.90;;;;;;5002024;28;88160;-32
2022/12/22 10:15:36;;;;;;;28.67;18.92;;;7.00;99.90;;;;;;5002058;28;90147;-34
2022/12/22 10:18:14;;;;;;;22.38;14.05;;;7.00;99.90;;;;;;5001298;28;91053;-33
2022/12/22 10:20:41;;;;;;;26.08;16.20;;;7.00;99.90;;;;;;5002020;28;87653;-33
2022/12/22 10:23:25;;;;;;;20.77;15.67;;;7.10;99.90;;;;;;5002342;28;87726;-34
2022/12/22 10:25:56;;;;;;;21.58;14.85;;;7.10;99.90;;;;;;5001370;28;90199;-33
2022/12/22 10:28:26;;;;;;;18.92;14.77;;;7.10;99.90;;;;;;5001076;28;89754;-32
2022/12/22 10:31:18;;;;;;;19.75;13.23;;;7.20;99.90;;;;;;5000953;28;89223;-32
2022/12/22 10:33:45;;;;;;;25.40;16.80;;;7.20;99.90;;;;;;4989332;28;89608;-31
2022/12/22 10:36:13;;;;;;;26.85;17.85;;;7.20;99.90;;;;;;5001795;28;89798;-33
2022/12/22 10:38:52;;;;;;;20.53;15.40;;;7.20;99.90;;;;;;5001053;28;89305;-31
2022/12/22 10:41:21;;;;;;;24.25;17.40;;;7.30;99.90;;;;;;5001230;28;88343;-34
2022/12/22 10:43:56;;;;;;;29.98;17.48;;;7.30;99.90;;;;;;4987247;28;88999;-32
2022/12/22 10:46:34;;;;;;;28.45;16.65;;;7.30;99.90;;;;;;5001705;28;90087;-34
2022/12/22 10:49:20;;;;;;;29.75;17.30;;;7.30;99.90;;;;;;4988842;28;89285;-34
2022/12/22 10:51:48;;;;;;;24.15;15.40;;;7.30;99.90;;;;;;5000912;28;87493;-34
2022/12/22 10:54:32;;;;;;;28.38;17.98;;;7.40;99.90;;;;;;5001521;28;89314;-32
2022/12/22 10:57:03;;;;;;;23.30;15.88;;;7.50;99.90;;;;;;5001314;28;89336;-32
2022/12/22 10:59:31;;;;;;;22.02;16.23;;;7.50;99.90;;;;;;5000890;28;89539;-34
2022/12/22 11:02:28;;;;;;;28.02;15.30;;;7.50;99.90;;;;;;5001679;28;89183;-34
2022/12/22 11:05:01;;;;;;;25.60;15.43;;;7.50;99.90;;;;;;4983452;28;90328;-32
2022/12/22 11:07:30;;;;;;;28.10;16.15;;;7.50;99.90;;;;;;4999701;28;90681;-34
2022/12/22 11:09:55;;;;;;;27.13;15.88;;;7.40;99.90;;;;;;5000109;28;89651;-31
2022/12/22 11:12:27;;;;;;;22.73;15.93;;;7.40;99.90;;;;;;5000063;28;89056;-32
2022/12/22 11:14:53;;;;;;;24.75;16.95;;;7.30;99.90;;;;;;5001238;28;88343;-33
2022/12/22 11:17:40;;;;;;;34.88;18.45;;;7.40;99.90;;;;;;5001118;28;88347;-34
2022/12/22 11:20:33;;;;;;;24.88;15.45;;;7.60;99.90;;;;;;5000606;28;89728;-32
2022/12/22 11:23:23;;;;;;;21.23;14.35;;;7.80;99.90;;;;;;5001257;28;88282;-34
2022/12/22 11:26:03;;;;;;;21.05;15.05;;;7.80;99.90;;;;;;5000672;28;87650;-35
2022/12/22 11:28:37;;;;;;;16.60;13.52;;;7.80;99.90;;;;;;4999755;28;90571;-34
2022/12/22 11:31:32;;;;;;;23.15;15.52;;;7.80;99.90;;;;;;5000515;28;89424;-32
2022/12/22 11:34:04;;;;;;;19.08;12.90;;;7.70;99.90;;;;;;4916393;28;89048;-33
2022/12/22 11:37:12;;;;;;;22.60;14.63;;;7.70;99.90;;;;;;4997144;28;88630;-32
2022/12/22 11:39:53;;;;;;;24.02;14.55;;;7.70;99.90;;;;;;5000536;28;89264;-35
2022/12/22 11:42:45;;;;;;;20.25;14.75;;;7.70;99.90;;;;;;4989580;28;90046;-32
2022/12/22 11:45:32;;;;;;;19.92;13.27;;;7.70;99.90;;;;;;5000530;28;87483;-33
2022/12/22 11:48:19;;;;;;;25.48;15.10;;;7.70;99.90;;;;;;5000388;28;88190;-32
2022/12/22 11:50:54;;;;;;;17.83;11.93;;;7.70;99.90;;;;;;4987681;28;89836;-33
2022/12/22 11:53:47;;;;;;;20.30;13.00;;;7.70;99.90;;;;;;5000080;28;88570;-32
2022/12/22 11:56:34;;;;;;;18.08;11.70;;;7.80;99.90;;;;;;4999875;28;90003;-33
2022/12/22 11:59:21;;;;;;;15.75;11.68;;;7.90;99.90;;;;;;5000858;28;89733;-32
2022/12/22 12:02:09;;;;;;;23.10;13.80;;;7.90;99.90;;;;;;4999968;28;90642;-34
2022/12/22 12:04:59;;;;;;;17.77;11.80;;;7.90;99.90;;;;;;4999980;28;90018;-33
2022/12/22 12:07:33;;;;;;;20.65;12.43;;;8.00;99.90;;;;;;4999930;28;89507;-35
2022/12/22 12:10:13;;;;;;;18.50;12.38;;;8.10;99.90;;;;;;5000054;28;87604;-34
2022/12/22 12:12:42;;;;;;;21.20;11.02;;;8.10;99.90;;;;;;4999435;28;90934;-33
2022/12/22 12:15:18;;;;;;;16.67;12.18;;;8.10;99.90;;;;;;4999518;28;90347;-33
2022/12/22 12:17:55;;;;;;;16.73;12.52;;;8.10;99.90;;;;;;4999549;28;90239;-34
2022/12/22 12:20:48;;;;;;;16.83;11.32;;;8.20;99.90;;;;;;5000241;28;88312;-33
2022/12/22 12:23:32;;;;;;;17.13;11.20;;;8.20;99.90;;;;;;4999579;28;90392;-34
2022/12/22 12:26:23;;;;;;;23.73;13.20;;;8.20;99.90;;;;;;5000116;28;90256;-33
2022/12/22 12:29:03;;;;;;;23.42;12.82;;;8.20;99.90;;;;;;5000101;28;88240;-31
2022/12/22 12:31:35;;;;;;;23.42;12.23;;;8.30;99.90;;;;;;4999551;28;89101;-34
2022/12/22 12:34:03;;;;;;;19.88;11.60;;;8.30;99.90;;;;;;5000449;28;90157;-34
2022/12/22 12:37:11;;;;;;;20.90;12.63;;;8.30;99.90;;;;;;4999851;28;89632;-32
2022/12/22 12:39:53;;;;;;;19.02;11.57;;;8.30;99.90;;;;;;4999437;28;88897;-32
2022/12/22 12:42:39;;;;;;;17.33;10.63;;;8.20;99.90;;;;;;4988676;28;87803;-35
2022/12/22 12:45:34;;;;;;;19.88;12.02;;;8.20;99.90;;;;;;5000187;28;89772;-32
2022/12/22 12:48:22;;;;;;;32.95;12.30;;;8.30;99.90;;;;;;4999408;28;90224;-33
2022/12/22 12:50:48;;;;;;;16.50;11.63;;;8.20;99.90;;;;;;4986666;28;88368;-34
2022/12/22 12:53:15;;;;;;;19.35;11.95;;;8.30;99.90;;;;;;4999566;28;87606;-35
2022/12/22 12:55:41;;;;;;;16.92;11.65;;;8.30;99.90;;;;;;4999671;28;89054;-33
2022/12/22 12:58:11;;;;;;;19.02;12.40;;;8.30;99.90;;;;;;4998954;28;89202;-33
2022/12/22 13:00:37;;;;;;;22.58;10.77;;;8.40;99.90;;;;;;4998716;28;88398;-32
2022/12/22 13:03:10;;;;;;;18.25;12.50;;;8.40;99.90;;;;;;4999710;28;89051;-32
2022/12/22 13:05:54;;;;;;;23.45;11.48;;;8.50;99.90;;;;;;4998365;28;90483;-33
2022/12/22 13:08:26;;;;;;;21.60;12.32;;;8.50;99.90;;;;;;4999302;28;89893;-33
2022/12/22 13:10:51;;;;;;;20.67;11.88;;;8.50;99.90;;;;;;4999389;28;89420;-34
2022/12/22 13:13:20;;;;;;;22.55;11.07;;;8.50;99.90;;;;;;5000063;28;89246;-35
2022/12/22 13:15:47;;;;;;;21.13;11.10;;;8.60;99.90;;;;;;4999016;28;88777;-35
2022/12/22 13:18:22;;;;;;;24.33;11.43;;;8.60;99.90;;;;;;4999263;28;89078;-35
2022/12/22 13:21:07;;;;;;;23.77;12.15;;;8.70;99.90;;;;;;4998717;28;89183;-35
2022/12/22 13:23:36;;;;;;;17.58;11.60;;;8.70;99.90;;;;;;4999391;28;88652;-35
2022/12/22 13:26:06;;;;;;;18.88;11.68;;;8.80;99.90;;;;;;4998903;28;90288;-37
2022/12/22 13:28:31;;;;;;;17.20;11.32;;;8.80;99.90;;;;;;4998228;28;90104;-36
2022/12/22 13:31:00;;;;;;;32.20;13.88;;;8.80;99.90;;;;;;4998363;28;87944;-35
2022/12/22 13:33:30;;;;;;;16.65;11.45;;;8.80;99.90;;;;;;4999982;28;88372;-36
2022/12/22 13:35:57;;;;;;;17.60;11.85;;;8.80;99.90;;;;;;5003199;28;90423;-34
2022/12/22 13:38:28;;;;;;;13.30;9.80;;;8.80;99.90;;;;;;5002693;28;89137;-33
2022/12/22 13:40:54;;;;;;;18.15;11.70;;;8.80;99.90;;;;;;5004217;28;88834;-33
2022/12/22 13:43:19;;;;;;;19.15;11.50;;;8.90;99.90;;;;;;5002080;28;89549;-34
2022/12/22 13:45:53;;;;;;;19.08;10.88;;;8.80;99.90;;;;;;5001779;28;88847;-34
2022/12/22 13:48:25;;;;;;;21.27;11.68;;;8.80;99.90;;;;;;5001833;28;89682;-35
2022/12/22 13:50:58;;;;;;;22.90;11.30;;;8.80;99.90;;;;;;5002802;28;89851;-38
2022/12/22 13:53:47;;;;;;;14.70;9.95;;;8.80;99.90;;;;;;5001173;28;88270;-38
2022/12/22 13:56:20;;;;;;;20.35;11.30;;;8.80;99.90;;;;;;5003218;28;90019;-38
2022/12/22 13:58:51;;;;;;;17.05;10.30;;;8.90;99.90;;;;;;5001623;28;89666;-36
2022/12/22 14:01:18;;;;;;;16.00;9.48;;;8.90;99.90;;;;;;5002855;28;88656;-34
2022/12/22 14:03:50;;;;;;;13.98;9.15;;;8.90;99.90;;;;;;5002031;28;89760;-34
2022/12/22 14:06:36;;;;;;;20.80;9.30;;;8.90;99.90;;;;;;5003048;28;91326;-33
2022/12/22 14:09:22;;;;;;;19.48;8.63;;;8.80;99.90;;;;;;5002051;28;90102;-35
2022/12/22 14:12:06;;;;;;;18.58;9.05;;;8.90;99.90;;;;;;5002131;28;87749;-34
2022/12/22 14:14:37;;;;;;;20.17;8.88;;;8.80;99.90;;;;;;5003147;28;87645;-33
2022/12/22 14:17:04;;;;;;;10.82;6.68;;;8.80;99.90;;;;;;5003202;28;88880;-34
2022/12/22 14:19:36;;;;;;;10.90;6.72;;;8.70;99.90;;;;;;5001981;28;91329;-35
2022/12/22 14:22:17;;;;;;;11.88;8.15;;;8.70;99.90;;;;;;5003387;28;88777;-37
2022/12/22 14:24:44;;;;;;;11.05;6.45;;;8.70;99.90;;;;;;5002842;28;89545;-38
2022/12/22 14:27:37;;;;;;;11.82;6.88;;;8.60;99.90;;;;;;5002796;28;89222;-36
2022/12/22 14:30:13;;;;;;;15.60;7.22;;;8.60;99.90;;;;;;4991733;28;89479;-35
2022/12/22 14:32:41;;;;;;;16.38;7.25;;;8.50;99.90;;;;;;4993674;28;89209;-36
2022/12/22 14:35:19;;;;;;;10.38;7.78;;;8.50;99.90;;;;;;4993985;28;88359;-34
2022/12/22 14:38:09;;;;;;;8.70;6.17;;;8.50;99.90;;;;;;5000103;28;90229;-36
2022/12/22 14:40:38;;;;;;;10.93;6.88;;;8.50;99.90;;;;;;4999601;28;89209;-33
2022/12/22 14:43:25;;;;;;;12.52;7.65;;;8.50;99.90;;;;;;5000691;28;88894;-35
2022/12/22 14:46:01;;;;;;;11.17;7.10;;;8.50;99.90;;;;;;4999828;28;89410;-33
2022/12/22 14:48:31;;;;;;;14.45;7.57;;;8.50;99.90;;;;;;4998054;28;90358;-37
2022/12/22 14:50:58;;;;;;;10.85;6.97;;;8.40;99.90;;;;;;4999511;28;90535;-36
2022/12/22 14:53:34;;;;;;;8.88;6.90;;;8.40;99.90;;;;;;4999768;28;89193;-37
2022/12/22 14:56:00;;;;;;;10.82;6.18;;;8.40;99.90;;;;;;5000897;28;89565;-35
2022/12/22 14:58:34;;;;;;;7.57;5.75;;;8.40;99.90;;;;;;4998777;28;91114;-35
2022/12/22 15:01:29;;;;;;;12.63;6.18;;;8.40;99.90;;;;;;5000117;28;89758;-36
2022/12/22 15:04:06;;;;;;;17.42;7.15;;;8.40;99.90;;;;;;5000587;28;89280;-36
2022/12/22 15:06:39;;;;;;;10.82;5.90;;;8.40;99.90;;;;;;4991072;28;89029;-35
2022/12/22 15:09:10;;;;;;;11.73;6.75;;;8.40;99.90;;;;;;5002257;28;89848;-34
2022/12/22 15:11:39;;;;;;;8.68;6.03;;;8.30;99.90;;;;;;4991728;28;89168;-36
2022/12/22 15:14:19;;;;;;;11.98;6.28;;;8.30;99.90;;;;;;5000203;28;87624;-34
2022/12/22 15:16:45;;;;;;;11.85;6.28;;;8.30;99.90;;;;;;4991929;28;89644;-35
2022/12/22 15:19:17;;;;;;;14.18;6.60;;;8.30;99.90;;;;;;4999541;28;89352;-34
2022/12/22 15:21:43;;;;;;;9.77;5.45;;;8.20;99.90;;;;;;4999094;28;90061;-36
2022/12/22 15:24:16;;;;;;;8.65;5.07;;;8.20;99.90;;;;;;4999327;28;88612;-35
2022/12/22 15:26:43;;;;;;;10.02;6.30;;;8.20;99.90;;;;;;4987352;28;89195;-34
2022/12/22 15:29:09;;;;;;;13.60;6.70;;;8.20;99.90;;;;;;4997915;28;89099;-34
2022/12/22 15:31:36;;;;;;;13.25;6.53;;;8.20;99.90;;;;;;4999064;28;89603;-34
2022/12/22 15:34:08;;;;;;;11.38;6.15;;;8.10;99.90;;;;;;5001491;28;88893;-36
2022/12/22 15:36:34;;;;;;;14.35;7.57;;;8.10;99.90;;;;;;5004121;28;87949;-37
2022/12/22 15:39:00;;;;;;;14.40;7.10;;;8.10;99.90;;;;;;5002180;28;90421;-34
2022/12/22 15:41:25;;;;;;;9.50;6.88;;;8.00;99.90;;;;;;4998919;28;89907;-34
2022/12/22 15:43:51;;;;;;;11.77;7.85;;;8.00;99.90;;;;;;5001774;28;89153;-35
2022/12/22 15:46:17;;;;;;;14.27;7.97;;;8.00;99.90;;;;;;4998058;28;89276;-34
2022/12/22 15:48:45;;;;;;;15.98;8.73;;;7.90;99.90;;;;;;4998285;28;90147;-36
2022/12/22 15:51:25;;;;;;;12.00;7.67;;;7.90;99.90;;;;;;4997764;28;89757;-35
2022/12/22 15:53:51;;;;;;;15.07;9.07;;;7.90;99.90;;;;;;4995662;28;89886;-36
2022/12/22 15:56:22;;;;;;;15.85;9.93;;;8.00;99.90;;;;;;4997268;28;88495;-33
2022/12/22 15:58:48;;;;;;;20.52;10.95;;;7.90;99.90;;;;;;4998284;28;91510;-36
2022/12/22 16:01:13;;;;;;;13.40;9.90;;;7.90;99.90;;;;;;4997811;28;89790;-35
2022/12/22 16:03:39;;;;;;;16.85;11.00;;;7.90;99.90;;;;;;4998761;28;88111;-35
2022/12/22 16:06:07;;;;;;;15.63;11.05;;;8.00;99.90;;;;;;4997439;28;88276;-37
2022/12/22 16:08:36;;;;;;;19.13;11.75;;;7.90;99.90;;;;;;4996515;28;89936;-34
2022/12/22 16:11:03;;;;;;;18.02;12.10;;;7.90;99.90;;;;;;4997201;28;90216;-32
2022/12/22 16:13:29;;;;;;;16.25;12.27;;;7.90;99.90;;;;;;4997797;28;87657;-32
2022/12/22 16:15:55;;;;;;;14.45;11.32;;;7.90;99.90;;;;;;4997053;28;88833;-35
2022/12/22 16:18:21;;;;;;;24.98;14.75;;;8.00;99.90;;;;;;4996299;28;90213;-32
2022/12/22 16:20:51;;;;;;;17.45;13.07;;;8.00;99.90;;;;;;4996825;28;89563;-32
2022/12/22 16:23:23;;;;;;;17.63;13.35;;;8.00;99.90;;;;;;4997818;28;88193;-33
2022/12/22 16:25:49;;;;;;;21.95;14.25;;;8.00;99.90;;;;;;4997615;28;88386;-31
2022/12/22 16:28:21;;;;;;;27.58;14.80;;;7.90;99.90;;;;;;4997193;28;90112;-32
2022/12/22 16:30:47;;;;;;;15.57;13.80;;;8.00;99.90;;;;;;4996590;28;88906;-35
2022/12/22 16:33:14;;;;;;;24.13;14.65;;;7.90;99.90;;;;;;4997470;28;89178;-33
2022/12/22 16:35:40;;;;;;;22.17;15.55;;;7.90;99.90;;;;;;4996944;28;89798;-33
2022/12/22 16:38:06;;;;;;;22.60;13.90;;;7.90;99.90;;;;;;4998040;28;90318;-35